MMLP/LAP METAR and TAF weather

Enter ICAO airport designator
Station Type Date Time Source
MMLP METAR 2019/08/19 01:48 UTC NOAA

MMLP 190148Z 19012KT 10SM SKC 32/14 A2979 RMK ISOL SC CI


Station Type Date Time Source
MMLP Decoded METAR 2019/08/19 01:48 UTC NOAA

Station name not available
Aug 18, 2019 - 09:48 PM EDT / 2019.08.19 0148 UTC
Wind: from the S (190 degrees) at 14 MPH (12 KT):0
Visibility: 10 mile(s):0
Sky conditions: clear
Temperature: 89 F (32 C)
Dew Point: 57 F (14 C)
Relative Humidity: 33%
Pressure (altimeter): 29.79 in. Hg (1008 hPa)
ob: MMLP 190148Z 19012KT 10SM SKC 32/14 A2979 RMK ISOL SC CI
cycle: 2

Station Type Date Time Source
MMLP TAF 2019/08/18 18:03 UTC NOAA

TAF MMLP 181700Z 1818/1918 13010KT P6SM SKC
BECMG 1821/1822 19010KT
FM190600 30005KT P6SM SKC
FM191700 29007KT P6SM SKC

Example: see airport list